Time;durP1;ratioP1;P1;durP2;ratioP2;P2;SDS_P1;SDS_P2;PMS_P1;PMS_P2;Temp;Humidity;BMP_temperature;BMP_pressure;BME280_temperature;BME280_humidity;BME280_pressure;Samples;Min_cycle;Max_cycle;Signal;HPM_P1;HPM_P2
2024/04/19 00:00:10;;;;;;;;;;;;;;;;;;5351491;26;19962;-74
2024/04/19 00:02:35;;;;;;;;;;;;;;;;;;5387767;26;19937;-75
2024/04/19 00:05:03;;;;;;;;;;;;;;;;;;5384355;26;19963;-72
2024/04/19 00:07:34;;;;;;;;;;;;;;;;;;5383393;26;20333;-74
2024/04/19 00:10:01;;;;;;;;;;;;;;;;;;5393244;26;19941;-71
2024/04/19 00:12:27;;;;;;;;;;;;;;;;;;5388586;26;20109;-75
2024/04/19 00:14:54;;;;;;;;;;;;;;;;;;5350801;26;19936;-74
2024/04/19 00:17:26;;;;;;;;;;;;;;;;;;5381572;26;19940;-73
2024/04/19 00:19:51;;;;;;;;;;;;;;;;;;5375370;26;22504;-74
2024/04/19 00:22:19;;;;;;;;;;;;;;;;;;5410570;26;19928;-73
2024/04/19 00:24:47;;;;;;;;;;;;;;;;;;5349620;26;19929;-73
2024/04/19 00:27:12;;;;;;;;;;;;;;;;;;5347122;26;19944;-72
2024/04/19 00:29:40;;;;;;;;;;;;;;;;;;5374838;26;19936;-72
2024/04/19 00:32:08;;;;;;;;;;;;;;;;;;5345835;26;20065;-70
2024/04/19 00:34:33;;;;;;;;;;;;;;;;;;5409529;26;19965;-74
2024/04/19 00:37:01;;;;;;;;;;;;;;;;;;5412665;26;19943;-75
2024/04/19 00:39:28;;;;;;;;;;;;;;;;;;5382108;26;19949;-73
2024/04/19 00:41:57;;;;;;;;;;;;;;;;;;5412420;26;19936;-71
2024/04/19 00:44:24;;;;;;;;;;;;;;;;;;5378316;26;19929;-76
2024/04/19 00:46:52;;;;;;;;;;;;;;;;;;5413061;26;19929;-74
2024/04/19 00:49:20;;;;;;;;;;;;;;;;;;5379333;26;20605;-73
2024/04/19 00:51:45;;;;;;;;;;;;;;;;;;5348066;26;19937;-74
2024/04/19 00:54:10;;;;;;;;;;;;;;;;;;5380100;26;19951;-73
2024/04/19 00:56:38;;;;;;;;;;;;;;;;;;5394890;26;19929;-75
2024/04/19 00:59:04;;;;;;;;;;;;;;;;;;5317463;26;20011;-72
2024/04/19 01:01:29;;;;;;;;;;;;;;;;;;5352681;26;19936;-75
2024/04/19 01:03:55;;;;;;;;;;;;;;;;;;5320399;26;19962;-74
2024/04/19 01:06:22;;;;;;;;;;;;;;;;;;5325488;26;19936;-77
2024/04/19 01:08:53;;;;;;;;;;;;;;;;;;5381952;26;19929;-77
2024/04/19 01:11:18;;;;;;;;;;;;;;;;;;5359415;26;19944;-75
2024/04/19 01:13:43;;;;;;;;;;;;;;;;;;5349345;26;19937;-74
2024/04/19 01:16:08;;;;;;;;;;;;;;;;;;5350712;26;20707;-75
2024/04/19 01:18:34;;;;;;;;;;;;;;;;;;5379885;26;20343;-73
2024/04/19 01:21:02;;;;;;;;;;;;;;;;;;5383828;26;19949;-74
2024/04/19 01:23:27;;;;;;;;;;;;;;;;;;5321596;26;19977;-74
2024/04/19 01:25:54;;;;;;;;;;;;;;;;;;5384575;26;20719;-76
2024/04/19 01:28:23;;;;;;;;;;;;;;;;;;5350795;26;20022;-73
2024/04/19 01:30:50;;;;;;;;;;;;;;;;;;5350610;26;19941;-75
2024/04/19 01:33:16;;;;;;;;;;;;;;;;;;5346010;26;19937;-75
2024/04/19 01:35:43;;;;;;;;;;;;;;;;;;5354623;26;19969;-74
2024/04/19 01:38:09;;;;;;;;;;;;;;;;;;5380113;26;19937;-72
2024/04/19 01:40:34;;;;;;;;;;;;;;;;;;5343861;26;19937;-76
2024/04/19 01:43:02;;;;;;;;;;;;;;;;;;5371948;26;19936;-76
2024/04/19 01:45:27;;;;;;;;;;;;;;;;;;5345972;26;19944;-72
2024/04/19 01:47:52;;;;;;;;;;;;;;;;;;5324007;26;19942;-73
2024/04/19 01:50:17;;;;;;;;;;;;;;;;;;5369679;26;20695;-72
2024/04/19 01:52:42;;;;;;;;;;;;;;;;;;5348595;26;20231;-76
2024/04/19 01:55:11;;;;;;;;;;;;;;;;;;5379928;26;19929;-76
2024/04/19 01:57:36;;;;;;;;;;;;;;;;;;5350119;26;20367;-75
2024/04/19 02:00:04;;;;;;;;;;;;;;;;;;5362299;26;19937;-74
2024/04/19 02:02:30;;;;;;;;;;;;;;;;;;5318824;26;19936;-74
2024/04/19 02:04:58;;;;;;;;;;;;;;;;;;5366832;26;20000;-75
2024/04/19 02:07:23;;;;;;;;;;;;;;;;;;5347800;26;20052;-74
2024/04/19 02:09:48;;;;;;;;;;;;;;;;;;5345575;26;20070;-76
2024/04/19 02:12:14;;;;;;;;;;;;;;;;;;5344266;26;19944;-74
2024/04/19 02:14:42;;;;;;;;;;;;;;;;;;5383089;26;19944;-74
2024/04/19 02:17:07;;;;;;;;;;;;;;;;;;5348889;26;20224;-72
2024/04/19 02:19:36;;;;;;;;;;;;;;;;;;5362518;26;19946;-75
2024/04/19 02:22:01;;;;;;;;;;;;;;;;;;5317575;26;20513;-74
2024/04/19 02:24:26;;;;;;;;;;;;;;;;;;5362055;26;19930;-75
2024/04/19 02:26:54;;;;;;;;;;;;;;;;;;5366162;26;20029;-73
2024/04/19 02:32:03;;;;;;;;;;;;;;;;;;5356607;26;19936;-76
2024/04/19 02:34:28;;;;;;;;;;;;;;;;;;5380536;26;19929;-74
2024/04/19 02:36:54;;;;;;;;;;;;;;;;;;5382503;26;19941;-72
2024/04/19 02:39:21;;;;;;;;;;;;;;;;;;5351371;26;19937;-76
2024/04/19 02:41:50;;;;;;;;;;;;;;;;;;5377437;26;19960;-75
2024/04/19 02:44:15;;;;;;;;;;;;;;;;;;5351239;26;19933;-74
2024/04/19 02:46:43;;;;;;;;;;;;;;;;;;5381524;26;19940;-75
2024/04/19 02:49:08;;;;;;;;;;;;;;;;;;5347305;26;20377;-76
2024/04/19 02:51:36;;;;;;;;;;;;;;;;;;5379452;26;19943;-75
2024/04/19 02:54:04;;;;;;;;;;;;;;;;;;5362902;26;20476;-73
2024/04/19 02:56:31;;;;;;;;;;;;;;;;;;5355525;26;20585;-78
2024/04/19 02:58:56;;;;;;;;;;;;;;;;;;5344081;26;20093;-76
2024/04/19 03:01:25;;;;;;;;;;;;;;;;;;5381042;26;19941;-79
2024/04/19 03:03:50;;;;;;;;;;;;;;;;;;5346908;26;19948;-76
2024/04/19 03:06:15;;;;;;;;;;;;;;;;;;5383947;26;20080;-77
2024/04/19 03:08:43;;;;;;;;;;;;;;;;;;5385152;26;19957;-75
2024/04/19 03:11:09;;;;;;;;;;;;;;;;;;5320516;26;20301;-76
2024/04/19 03:13:34;;;;;;;;;;;;;;;;;;5347380;26;19929;-74
2024/04/19 03:15:59;;;;;;;;;;;;;;;;;;5339586;26;20395;-74
2024/04/19 03:18:26;;;;;;;;;;;;;;;;;;5368486;26;19958;-79
2024/04/19 03:20:52;;;;;;;;;;;;;;;;;;5331954;26;19936;-77
2024/04/19 03:23:19;;;;;;;;;;;;;;;;;;5356401;26;19928;-75
2024/04/19 03:25:44;;;;;;;;;;;;;;;;;;5362577;26;20325;-77
2024/04/19 03:28:10;;;;;;;;;;;;;;;;;;5375839;26;20738;-76
2024/04/19 03:30:36;;;;;;;;;;;;;;;;;;5363035;26;20357;-80
2024/04/19 03:33:01;;;;;;;;;;;;;;;;;;5354072;26;19949;-76
2024/04/19 03:35:27;;;;;;;;;;;;;;;;;;5317907;26;19952;-73
2024/04/19 03:37:52;;;;;;;;;;;;;;;;;;5381461;26;19944;-76
2024/04/19 03:40:17;;;;;;;;;;;;;;;;;;5337365;26;19936;-79
2024/04/19 03:42:48;;;;;;;;;;;;;;;;;;5350366;26;19936;-79
2024/04/19 03:47:57;;;;;;;;;;;;;;;;;;5379288;26;19997;-74
2024/04/19 03:50:25;;;;;;;;;;;;;;;;;;5344782;26;20050;-74
2024/04/19 03:52:50;;;;;;;;;;;;;;;;;;5310366;26;19937;-74
2024/04/19 03:55:15;;;;;;;;;;;;;;;;;;5373871;26;19937;-74
2024/04/19 03:57:40;;;;;;;;;;;;;;;;;;5411705;26;19952;-75
2024/04/19 04:00:06;;;;;;;;;;;;;;;;;;5400441;26;19956;-76
2024/04/19 04:02:31;;;;;;;;;;;;;;;;;;5397974;26;19976;-80
2024/04/19 04:04:56;;;;;;;;;;;;;;;;;;5394275;26;19929;-72
2024/04/19 04:07:22;;;;;;;;;;;;;;;;;;5374418;26;19935;-74
2024/04/19 04:09:47;;;;;;;;;;;;;;;;;;5405467;26;20034;-71
2024/04/19 04:12:12;;;;;;;;;;;;;;;;;;5407449;26;19929;-75
2024/04/19 04:14:38;;;;;;;;;;;;;;;;;;5409957;26;19946;-76
2024/04/19 04:17:10;;;;;;;;;;;;;;;;;;5356866;26;20210;-77
2024/04/19 04:19:38;;;;;;;;;;;;;;;;;;5413271;26;20024;-76
2024/04/19 04:22:03;;;;;;;;;;;;;;;;;;5349208;26;19963;-72
2024/04/19 04:24:31;;;;;;;;;;;;;;;;;;5356568;26;20188;-75
2024/04/19 04:26:59;;;;;;;;;;;;;;;;;;5394320;26;19965;-74
2024/04/19 04:29:27;;;;;;;;;;;;;;;;;;5389756;26;19937;-74
2024/04/19 04:31:52;;;;;;;;;;;;;;;;;;5356742;26;19948;-74
2024/04/19 04:34:20;;;;;;;;;;;;;;;;;;5386344;26;20521;-74
2024/04/19 04:36:45;;;;;;;;;;;;;;;;;;5415023;26;19936;-75
2024/04/19 04:39:13;;;;;;;;;;;;;;;;;;5411460;26;20026;-76
2024/04/19 04:41:42;;;;;;;;;;;;;;;;;;5374719;26;20216;-75
2024/04/19 04:44:10;;;;;;;;;;;;;;;;;;5357300;26;19929;-74
2024/04/19 04:46:35;;;;;;;;;;;;;;;;;;5408886;26;19935;-72
2024/04/19 04:49:03;;;;;;;;;;;;;;;;;;5408533;26;20241;-71
2024/04/19 04:51:28;;;;;;;;;;;;;;;;;;5372825;26;19937;-72
2024/04/19 04:53:54;;;;;;;;;;;;;;;;;;5375688;26;19943;-73
2024/04/19 04:56:19;;;;;;;;;;;;;;;;;;5407332;26;19929;-70
2024/04/19 04:58:44;;;;;;;;;;;;;;;;;;5373343;26;19935;-71
2024/04/19 05:01:09;;;;;;;;;;;;;;;;;;5356541;26;20060;-71
2024/04/19 05:03:35;;;;;;;;;;;;;;;;;;5381343;26;21679;-70
2024/04/19 05:06:00;;;;;;;;;;;;;;;;;;5344854;26;20309;-71
2024/04/19 05:08:25;;;;;;;;;;;;;;;;;;5374800;26;19943;-70
2024/04/19 05:10:53;;;;;;;;;;;;;;;;;;5410575;26;19929;-70
2024/04/19 05:13:19;;;;;;;;;;;;;;;;;;5373512;26;20366;-70
2024/04/19 05:15:49;;;;;;;;;;;;;;;;;;5377650;26;19936;-70
2024/04/19 05:18:17;;;;;;;;;;;;;;;;;;5409304;26;19937;-71
2024/04/19 05:20:46;;;;;;;;;;;;;;;;;;5375702;26;19948;-71
2024/04/19 05:23:13;;;;;;;;;;;;;;;;;;5375170;26;19943;-70
2024/04/19 05:25:39;;;;;;;;;;;;;;;;;;5372684;26;19929;-69
2024/04/19 05:28:04;;;;;;;;;;;;;;;;;;5405493;26;20080;-70
2024/04/19 05:30:29;;;;;;;;;;;;;;;;;;5343190;26;19928;-69
2024/04/19 05:32:55;;;;;;;;;;;;;;;;;;5406533;26;19929;-69
2024/04/19 05:35:20;;;;;;;;;;;;;;;;;;5406285;26;19993;-69
2024/04/19 05:37:51;;;;;;;;;;;;;;;;;;5371439;26;20513;-68
2024/04/19 05:40:19;;;;;;;;;;;;;;;;;;5407548;26;20256;-69
2024/04/19 05:42:44;;;;;;;;;;;;;;;;;;5373059;26;19957;-69
2024/04/19 05:45:12;;;;;;;;;;;;;;;;;;5375276;26;21302;-69
2024/04/19 05:47:38;;;;;;;;;;;;;;;;;;5371730;26;19944;-69
2024/04/19 05:50:03;;;;;;;;;;;;;;;;;;5408437;26;20089;-69
2024/04/19 05:52:29;;;;;;;;;;;;;;;;;;5405453;26;19947;-67
2024/04/19 05:54:59;;;;;;;;;;;;;;;;;;5407757;26;19936;-70
2024/04/19 05:57:24;;;;;;;;;;;;;;;;;;5400613;26;20016;-69
2024/04/19 05:59:49;;;;;;;;;;;;;;;;;;5374272;26;19957;-69
2024/04/19 06:02:15;;;;;;;;;;;;;;;;;;5404363;26;19937;-67
2024/04/19 06:04:40;;;;;;;;;;;;;;;;;;5373680;26;20910;-68
2024/04/19 06:07:05;;;;;;;;;;;;;;;;;;5371338;26;22340;-69
2024/04/19 06:09:30;;;;;;;;;;;;;;;;;;5404096;26;19936;-68
2024/04/19 06:11:56;;;;;;;;;;;;;;;;;;5405952;26;19928;-69
2024/04/19 06:14:21;;;;;;;;;;;;;;;;;;5403980;26;19928;-67
2024/04/19 06:16:49;;;;;;;;;;;;;;;;;;5403972;26;19943;-69
2024/04/19 06:19:16;;;;;;;;;;;;;;;;;;5385662;26;20675;-70
2024/04/19 06:21:42;;;;;;;;;;;;;;;;;;5408069;26;20052;-67
2024/04/19 06:24:09;;;;;;;;;;;;;;;;;;5407190;26;19992;-68
2024/04/19 06:26:35;;;;;;;;;;;;;;;;;;5385338;26;19936;-69
2024/04/19 06:29:00;;;;;;;;;;;;;;;;;;5374669;26;19929;-68
2024/04/19 06:31:28;;;;;;;;;;;;;;;;;;5372435;26;19928;-68
2024/04/19 06:33:53;;;;;;;;;;;;;;;;;;5372718;26;21093;-71
2024/04/19 06:36:23;;;;;;;;;;;;;;;;;;5406717;26;19957;-70
2024/04/19 06:38:52;;;;;;;;;;;;;;;;;;5370440;26;19943;-70
2024/04/19 06:41:17;;;;;;;;;;;;;;;;;;5405278;26;19940;-70
2024/04/19 06:43:42;;;;;;;;;;;;;;;;;;5374088;26;20807;-68
2024/04/19 06:46:10;;;;;;;;;;;;;;;;;;5404318;26;19952;-68
2024/04/19 06:48:35;;;;;;;;;;;;;;;;;;5380548;26;19929;-69
2024/04/19 06:51:01;;;;;;;;;;;;;;;;;;5374897;26;19928;-68
2024/04/19 06:53:29;;;;;;;;;;;;;;;;;;5405781;26;19928;-70
2024/04/19 06:55:54;;;;;;;;;;;;;;;;;;5372997;26;20241;-69
2024/04/19 06:58:21;;;;;;;;;;;;;;;;;;5405893;26;19928;-68
2024/04/19 07:00:51;;;;;;;;;;;;;;;;;;5404577;26;20024;-68
2024/04/19 07:03:17;;;;;;;;;;;;;;;;;;5370064;26;19940;-71
2024/04/19 07:05:47;;;;;;;;;;;;;;;;;;5377730;26;20036;-69
2024/04/19 07:08:14;;;;;;;;;;;;;;;;;;5371737;26;19978;-73
2024/04/19 07:10:40;;;;;;;;;;;;;;;;;;5407067;26;20059;-73
2024/04/19 07:13:05;;;;;;;;;;;;;;;;;;5404048;26;19947;-73
2024/04/19 07:15:31;;;;;;;;;;;;;;;;;;5405223;26;19960;-73
2024/04/19 07:17:56;;;;;;;;;;;;;;;;;;5377765;26;19944;-70
2024/04/19 07:20:24;;;;;;;;;;;;;;;;;;5373815;26;20004;-70
2024/04/19 07:22:49;;;;;;;;;;;;;;;;;;5372956;26;19953;-67
2024/04/19 07:25:17;;;;;;;;;;;;;;;;;;5382299;26;20021;-68
2024/04/19 07:27:45;;;;;;;;;;;;;;;;;;5404495;26;19929;-67
2024/04/19 07:30:15;;;;;;;;;;;;;;;;;;5373736;26;19994;-67
2024/04/19 07:32:43;;;;;;;;;;;;;;;;;;5406587;26;19928;-67
2024/04/19 07:35:08;;;;;;;;;;;;;;;;;;5404848;26;19936;-67
2024/04/19 07:37:33;;;;;;;;;;;;;;;;;;5371413;26;20831;-69
2024/04/19 07:39:59;;;;;;;;;;;;;;;;;;5369250;26;19940;-71
2024/04/19 07:42:25;;;;;;;;;;;;;;;;;;5406883;26;19929;-68
2024/04/19 07:44:53;;;;;;;;;;;;;;;;;;5403795;26;19944;-69
2024/04/19 07:47:18;;;;;;;;;;;;;;;;;;5404081;26;19929;-69
2024/04/19 07:49:46;;;;;;;;;;;;;;;;;;5405106;26;20408;-69
2024/04/19 07:52:11;;;;;;;;;;;;;;;;;;5371704;26;19940;-69
2024/04/19 07:54:42;;;;;;;;;;;;;;;;;;5406561;26;19996;-68
2024/04/19 07:57:07;;;;;;;;;;;;;;;;;;5403674;26;20723;-68
2024/04/19 07:59:32;;;;;;;;;;;;;;;;;;5376110;26;19940;-69
2024/04/19 08:02:03;;;;;;;;;;;;;;;;;;5384124;26;20356;-68
2024/04/19 08:04:28;;;;;;;;;;;;;;;;;;5406099;26;20016;-70
2024/04/19 08:06:54;;;;;;;;;;;;;;;;;;5379813;26;19941;-69
2024/04/19 08:09:19;;;;;;;;;;;;;;;;;;5407681;26;19936;-70
2024/04/19 08:11:44;;;;;;;;;;;;;;;;;;5376375;26;19936;-68
2024/04/19 08:14:10;;;;;;;;;;;;;;;;;;5374766;26;19929;-65
2024/04/19 08:16:35;;;;;;;;;;;;;;;;;;5374911;26;20243;-66
2024/04/19 08:19:04;;;;;;;;;;;;;;;;;;5373559;26;19936;-70
2024/04/19 08:21:33;;;;;;;;;;;;;;;;;;5384360;26;21012;-66
2024/04/19 08:23:58;;;;;;;;;;;;;;;;;;5376669;26;20319;-72
2024/04/19 08:26:23;;;;;;;;;;;;;;;;;;5381223;26;19936;-68
2024/04/19 08:28:48;;;;;;;;;;;;;;;;;;5378324;26;21075;-67
2024/04/19 08:31:14;;;;;;;;;;;;;;;;;;5407024;26;20061;-68
2024/04/19 08:33:40;;;;;;;;;;;;;;;;;;5388092;26;20313;-70
2024/04/19 08:36:08;;;;;;;;;;;;;;;;;;5412366;26;19940;-70
2024/04/19 08:38:36;;;;;;;;;;;;;;;;;;5375453;26;20293;-68
2024/04/19 08:41:03;;;;;;;;;;;;;;;;;;5377995;26;19932;-67
2024/04/19 08:43:29;;;;;;;;;;;;;;;;;;5376313;26;20008;-68
2024/04/19 08:45:57;;;;;;;;;;;;;;;;;;5409516;26;19936;-67
2024/04/19 08:48:22;;;;;;;;;;;;;;;;;;5376412;26;20260;-68
2024/04/19 08:50:47;;;;;;;;;;;;;;;;;;5374592;26;19936;-67
2024/04/19 08:53:16;;;;;;;;;;;;;;;;;;5389893;26;19941;-65
2024/04/19 08:55:46;;;;;;;;;;;;;;;;;;5432447;26;20013;-67
2024/04/19 08:58:12;;;;;;;;;;;;;;;;;;5397241;26;19993;-68
2024/04/19 09:00:42;;;;;;;;;;;;;;;;;;5380923;26;19996;-67
2024/04/19 09:03:08;;;;;;;;;;;;;;;;;;5407459;26;19936;-67
2024/04/19 09:05:33;;;;;;;;;;;;;;;;;;5374634;26;19937;-72
2024/04/19 09:07:59;;;;;;;;;;;;;;;;;;5408350;26;20985;-72
2024/04/19 09:10:26;;;;;;;;;;;;;;;;;;5375053;26;19995;-73
2024/04/19 09:12:51;;;;;;;;;;;;;;;;;;5409244;26;19937;-67
2024/04/19 09:15:17;;;;;;;;;;;;;;;;;;5344121;26;20030;-75
2024/04/19 09:17:45;;;;;;;;;;;;;;;;;;5376695;26;19993;-67
2024/04/19 09:20:13;;;;;;;;;;;;;;;;;;5375526;26;19969;-73
2024/04/19 09:22:38;;;;;;;;;;;;;;;;;;5407568;26;19929;-66
2024/04/19 09:25:03;;;;;;;;;;;;;;;;;;5375698;26;19936;-68
2024/04/19 09:27:32;;;;;;;;;;;;;;;;;;5374594;26;19947;-70
2024/04/19 09:29:57;;;;;;;;;;;;;;;;;;5406847;26;19929;-66
2024/04/19 09:32:25;;;;;;;;;;;;;;;;;;5409149;26;19976;-67
2024/04/19 09:34:53;;;;;;;;;;;;;;;;;;5409451;26;19944;-68
2024/04/19 09:37:18;;;;;;;;;;;;;;;;;;5407075;26;20149;-68
2024/04/19 09:39:46;;;;;;;;;;;;;;;;;;5405781;26;20376;-68
2024/04/19 09:42:17;;;;;;;;;;;;;;;;;;5342420;26;19944;-67
2024/04/19 09:44:42;;;;;;;;;;;;;;;;;;5407897;26;19933;-70
2024/04/19 09:47:07;;;;;;;;;;;;;;;;;;5343365;26;20217;-67
2024/04/19 09:49:35;;;;;;;;;;;;;;;;;;5373119;26;19940;-69
2024/04/19 09:52:01;;;;;;;;;;;;;;;;;;5407268;26;19956;-69
2024/04/19 09:54:26;;;;;;;;;;;;;;;;;;5374181;26;20383;-71
2024/04/19 09:56:51;;;;;;;;;;;;;;;;;;5405135;26;19929;-69
2024/04/19 09:59:19;;;;;;;;;;;;;;;;;;5406596;26;19940;-67
2024/04/19 10:01:45;;;;;;;;;;;;;;;;;;5370980;26;19929;-68
2024/04/19 10:04:10;;;;;;;;;;;;;;;;;;5346156;26;20870;-70
2024/04/19 10:06:37;;;;;;;;;;;;;;;;;;5406005;26;19941;-67
2024/04/19 10:09:08;;;;;;;;;;;;;;;;;;5374034;26;19943;-66
2024/04/19 10:11:36;;;;;;;;;;;;;;;;;;5373144;26;19955;-66
2024/04/19 10:14:01;;;;;;;;;;;;;;;;;;5376833;26;20487;-69
2024/04/19 10:16:26;;;;;;;;;;;;;;;;;;5384331;26;19936;-67
2024/04/19 10:18:52;;;;;;;;;;;;;;;;;;5378299;26;20317;-69
2024/04/19 10:21:17;;;;;;;;;;;;;;;;;;5376321;26;20022;-70
2024/04/19 10:23:43;;;;;;;;;;;;;;;;;;5408072;26;19933;-73
2024/04/19 10:26:11;;;;;;;;;;;;;;;;;;5409977;26;19936;-70
2024/04/19 10:28:39;;;;;;;;;;;;;;;;;;5374032;26;19929;-70
2024/04/19 10:31:13;;;;;;;;;;;;;;;;;;5375210;26;20603;-71
2024/04/19 10:33:39;;;;;;;;;;;;;;;;;;5383969;26;19940;-67
2024/04/19 10:36:07;;;;;;;;;;;;;;;;;;5352944;26;19936;-70
2024/04/19 10:38:38;;;;;;;;;;;;;;;;;;5345453;26;19929;-68
2024/04/19 10:41:17;;;;;;;;;;;;;;;;;;5371711;26;19960;-67
2024/04/19 10:43:46;;;;;;;;;;;;;;;;;;5373240;26;19935;-68
2024/04/19 10:46:17;;;;;;;;;;;;;;;;;;5344283;26;19936;-66
2024/04/19 10:48:45;;;;;;;;;;;;;;;;;;5340508;26;20118;-66
2024/04/19 10:51:13;;;;;;;;;;;;;;;;;;5337724;26;19973;-66
2024/04/19 10:53:38;;;;;;;;;;;;;;;;;;5370910;26;19941;-72
2024/04/19 10:56:04;;;;;;;;;;;;;;;;;;5358094;26;19936;-67
2024/04/19 10:58:36;;;;;;;;;;;;;;;;;;5374907;26;19933;-67
2024/04/19 11:01:12;;;;;;;;;;;;;;;;;;5345025;26;20623;-67
2024/04/19 11:03:41;;;;;;;;;;;;;;;;;;5372583;26;19936;-70
2024/04/19 11:06:37;;;;;;;;;;;;;;;;;;5364398;26;19936;-68
2024/04/19 11:09:04;;;;;;;;;;;;;;;;;;5382465;26;20121;-67
2024/04/19 11:11:37;;;;;;;;;;;;;;;;;;5372780;26;19933;-69
2024/04/19 11:14:06;;;;;;;;;;;;;;;;;;5333622;26;19968;-69
2024/04/19 11:16:32;;;;;;;;;;;;;;;;;;5384822;26;19947;-68
2024/04/19 11:18:58;;;;;;;;;;;;;;;;;;5413327;26;20502;-67
2024/04/19 11:21:48;;;;;;;;;;;;;;;;;;5394022;26;19936;-73
2024/04/19 11:24:14;;;;;;;;;;;;;;;;;;5373356;26;20646;-68
2024/04/19 11:26:50;;;;;;;;;;;;;;;;;;5350957;26;19944;-67
2024/04/19 11:29:20;;;;;;;;;;;;;;;;;;5370787;26;19972;-69
2024/04/19 11:31:49;;;;;;;;;;;;;;;;;;5398170;26;20481;-68
2024/04/19 11:34:15;;;;;;;;;;;;;;;;;;5367341;26;19937;-68
2024/04/19 11:39:58;;;;;;;;;;;;;;;;;;5399298;26;19968;-68
2024/04/19 11:42:24;;;;;;;;;;;;;;;;;;5410064;26;19972;-69
2024/04/19 11:44:52;;;;;;;;;;;;;;;;;;5371031;26;21289;-67
2024/04/19 11:47:22;;;;;;;;;;;;;;;;;;5332902;26;19929;-69
2024/04/19 11:49:47;;;;;;;;;;;;;;;;;;5404422;26;20054;-69
2024/04/19 11:52:13;;;;;;;;;;;;;;;;;;5377349;26;20304;-69
2024/04/19 11:54:43;;;;;;;;;;;;;;;;;;5377139;26;19936;-67
2024/04/19 11:57:08;;;;;;;;;;;;;;;;;;5404103;26;20300;-69
2024/04/19 11:59:36;;;;;;;;;;;;;;;;;;5404870;26;20390;-68
2024/04/19 12:02:04;;;;;;;;;;;;;;;;;;5374697;26;19943;-68
2024/04/19 12:04:29;;;;;;;;;;;;;;;;;;5370299;26;19936;-71
2024/04/19 12:06:55;;;;;;;;;;;;;;;;;;5341327;26;19929;-71
2024/04/19 12:09:20;;;;;;;;;;;;;;;;;;5406256;26;20464;-68
2024/04/19 12:11:46;;;;;;;;;;;;;;;;;;5371597;26;19935;-66
2024/04/19 12:14:12;;;;;;;;;;;;;;;;;;5373401;26;19929;-70
2024/04/19 12:16:42;;;;;;;;;;;;;;;;;;5373773;26;19947;-67
2024/04/19 12:19:07;;;;;;;;;;;;;;;;;;5370797;26;19929;-71
2024/04/19 12:21:33;;;;;;;;;;;;;;;;;;5407008;26;20532;-68
2024/04/19 12:23:58;;;;;;;;;;;;;;;;;;5405884;26;19941;-68
2024/04/19 12:26:27;;;;;;;;;;;;;;;;;;5348161;26;19941;-71
2024/04/19 12:28:52;;;;;;;;;;;;;;;;;;5407785;26;19936;-69
2024/04/19 12:31:18;;;;;;;;;;;;;;;;;;5373422;26;19937;-71
2024/04/19 12:33:45;;;;;;;;;;;;;;;;;;5369581;26;20268;-69
2024/04/19 12:36:11;;;;;;;;;;;;;;;;;;5338804;26;20095;-66
2024/04/19 12:38:36;;;;;;;;;;;;;;;;;;5403824;26;19937;-66
2024/04/19 12:41:02;;;;;;;;;;;;;;;;;;5372062;26;20272;-68
2024/04/19 12:43:27;;;;;;;;;;;;;;;;;;5405508;26;19940;-71
2024/04/19 12:45:55;;;;;;;;;;;;;;;;;;5399862;26;19936;-68
2024/04/19 12:48:23;;;;;;;;;;;;;;;;;;5411338;26;19943;-69
2024/04/19 12:50:49;;;;;;;;;;;;;;;;;;5375188;26;19933;-66
2024/04/19 12:53:16;;;;;;;;;;;;;;;;;;5386691;26;20074;-67
2024/04/19 12:55:42;;;;;;;;;;;;;;;;;;5343188;26;20109;-68
2024/04/19 12:58:09;;;;;;;;;;;;;;;;;;5376004;26;19941;-65
2024/04/19 13:00:34;;;;;;;;;;;;;;;;;;5344078;26;19994;-65
2024/04/19 13:03:00;;;;;;;;;;;;;;;;;;5407107;26;20040;-68
2024/04/19 13:05:25;;;;;;;;;;;;;;;;;;5409759;26;20403;-70
2024/04/19 13:07:56;;;;;;;;;;;;;;;;;;5408890;26;19940;-67
2024/04/19 13:10:24;;;;;;;;;;;;;;;;;;5407591;26;19936;-67
2024/04/19 13:12:52;;;;;;;;;;;;;;;;;;5409506;26;19952;-70
2024/04/19 13:15:17;;;;;;;;;;;;;;;;;;5406326;26;19948;-68
2024/04/19 13:17:42;;;;;;;;;;;;;;;;;;5408869;26;19977;-69
2024/04/19 13:20:07;;;;;;;;;;;;;;;;;;5346410;26;20000;-67
2024/04/19 13:22:38;;;;;;;;;;;;;;;;;;5380297;26;19964;-70
2024/04/19 13:25:06;;;;;;;;;;;;;;;;;;5380097;26;19929;-69
2024/04/19 13:27:32;;;;;;;;;;;;;;;;;;5357006;26;19936;-67
2024/04/19 13:30:00;;;;;;;;;;;;;;;;;;5377484;26;22417;-69
2024/04/19 13:32:25;;;;;;;;;;;;;;;;;;5375411;26;19928;-72
2024/04/19 13:34:52;;;;;;;;;;;;;;;;;;5408527;26;19996;-68
2024/04/19 13:37:18;;;;;;;;;;;;;;;;;;5409960;26;20005;-67
2024/04/19 13:39:43;;;;;;;;;;;;;;;;;;5406092;26;19936;-69
2024/04/19 13:42:13;;;;;;;;;;;;;;;;;;5407126;26;19937;-68
2024/04/19 13:44:39;;;;;;;;;;;;;;;;;;5405303;26;19940;-67
2024/04/19 13:47:11;;;;;;;;;;;;;;;;;;5405544;26;19944;-73
2024/04/19 13:49:37;;;;;;;;;;;;;;;;;;5355456;26;19940;-68
2024/04/19 13:52:02;;;;;;;;;;;;;;;;;;5387588;26;21170;-70
2024/04/19 13:54:30;;;;;;;;;;;;;;;;;;5409114;26;20280;-68
2024/04/19 13:56:56;;;;;;;;;;;;;;;;;;5344637;26;19929;-68
2024/04/19 13:59:21;;;;;;;;;;;;;;;;;;5406780;26;20480;-66
2024/04/19 14:01:47;;;;;;;;;;;;;;;;;;5345342;26;19929;-68
2024/04/19 14:04:14;;;;;;;;;;;;;;;;;;5342349;26;19959;-70
2024/04/19 14:06:40;;;;;;;;;;;;;;;;;;5371873;26;19940;-70
2024/04/19 14:09:08;;;;;;;;;;;;;;;;;;5407719;26;19947;-68
2024/04/19 14:11:33;;;;;;;;;;;;;;;;;;5372735;26;19948;-69
2024/04/19 14:14:00;;;;;;;;;;;;;;;;;;5379071;26;21395;-67
2024/04/19 14:16:25;;;;;;;;;;;;;;;;;;5406539;26;19944;-72
2024/04/19 14:18:54;;;;;;;;;;;;;;;;;;5404972;26;20248;-66
2024/04/19 14:21:19;;;;;;;;;;;;;;;;;;5370024;26;19941;-67
2024/04/19 14:23:50;;;;;;;;;;;;;;;;;;5354541;26;19940;-68
2024/04/19 14:26:15;;;;;;;;;;;;;;;;;;5373517;26;20000;-67
2024/04/19 14:28:50;;;;;;;;;;;;;;;;;;5407117;26;19929;-65
2024/04/19 14:31:20;;;;;;;;;;;;;;;;;;5343712;26;20043;-71
2024/04/19 14:33:45;;;;;;;;;;;;;;;;;;5406424;26;19960;-68
2024/04/19 14:36:10;;;;;;;;;;;;;;;;;;5386179;26;19940;-71
2024/04/19 14:38:35;;;;;;;;;;;;;;;;;;5372207;26;19937;-73
2024/04/19 14:41:07;;;;;;;;;;;;;;;;;;5405419;26;20691;-72
2024/04/19 14:43:39;;;;;;;;;;;;;;;;;;5373448;26;19936;-69
2024/04/19 14:46:07;;;;;;;;;;;;;;;;;;5373901;26;20322;-67
2024/04/19 14:48:33;;;;;;;;;;;;;;;;;;5406714;26;19998;-67
2024/04/19 14:50:59;;;;;;;;;;;;;;;;;;5373021;26;19984;-68
2024/04/19 14:53:29;;;;;;;;;;;;;;;;;;5406610;26;20175;-69
2024/04/19 14:55:54;;;;;;;;;;;;;;;;;;5372422;26;19936;-68
2024/04/19 14:58:22;;;;;;;;;;;;;;;;;;5372079;26;19932;-67
2024/04/19 15:00:47;;;;;;;;;;;;;;;;;;5404334;26;19933;-67
2024/04/19 15:03:13;;;;;;;;;;;;;;;;;;5371271;26;19932;-66
2024/04/19 15:05:41;;;;;;;;;;;;;;;;;;5406492;26;20474;-66
2024/04/19 15:08:07;;;;;;;;;;;;;;;;;;5406653;26;19936;-66
2024/04/19 15:10:32;;;;;;;;;;;;;;;;;;5372107;26;19963;-67
2024/04/19 15:12:58;;;;;;;;;;;;;;;;;;5341644;26;19936;-68
2024/04/19 15:15:23;;;;;;;;;;;;;;;;;;5405475;26;19936;-68
2024/04/19 15:17:53;;;;;;;;;;;;;;;;;;5368325;26;19936;-69
2024/04/19 15:20:18;;;;;;;;;;;;;;;;;;5349802;26;19960;-67
2024/04/19 15:22:46;;;;;;;;;;;;;;;;;;5369751;26;19936;-69
2024/04/19 15:25:14;;;;;;;;;;;;;;;;;;5405063;26;20405;-66
2024/04/19 15:27:40;;;;;;;;;;;;;;;;;;5405923;26;19936;-69
2024/04/19 15:30:07;;;;;;;;;;;;;;;;;;5406228;26;19951;-69
2024/04/19 15:32:38;;;;;;;;;;;;;;;;;;5372757;26;20344;-71
2024/04/19 15:35:08;;;;;;;;;;;;;;;;;;5373313;26;21134;-70
2024/04/19 15:37:33;;;;;;;;;;;;;;;;;;5406762;26;19964;-67
2024/04/19 15:39:59;;;;;;;;;;;;;;;;;;5405587;26;20465;-66
2024/04/19 15:42:24;;;;;;;;;;;;;;;;;;5373618;26;19929;-66
2024/04/19 15:44:52;;;;;;;;;;;;;;;;;;5384993;26;19941;-65
2024/04/19 15:47:17;;;;;;;;;;;;;;;;;;5400035;26;19929;-64
2024/04/19 15:49:50;;;;;;;;;;;;;;;;;;5405159;26;19928;-67
2024/04/19 15:52:20;;;;;;;;;;;;;;;;;;5385966;26;19929;-67
2024/04/19 15:54:45;;;;;;;;;;;;;;;;;;5372304;26;20084;-70
2024/04/19 15:57:16;;;;;;;;;;;;;;;;;;5373746;26;20560;-68
2024/04/19 15:59:44;;;;;;;;;;;;;;;;;;5371666;26;19940;-68
2024/04/19 16:02:09;;;;;;;;;;;;;;;;;;5403576;26;19928;-67
2024/04/19 16:04:34;;;;;;;;;;;;;;;;;;5403916;26;19936;-67
2024/04/19 16:06:59;;;;;;;;;;;;;;;;;;5371385;26;19928;-67
2024/04/19 16:09:30;;;;;;;;;;;;;;;;;;5403437;26;19980;-67
2024/04/19 16:11:55;;;;;;;;;;;;;;;;;;5373434;26;21996;-67
2024/04/19 16:14:23;;;;;;;;;;;;;;;;;;5406989;26;19928;-66
2024/04/19 16:16:48;;;;;;;;;;;;;;;;;;5370871;26;19992;-66
2024/04/19 16:19:16;;;;;;;;;;;;;;;;;;5405545;26;19936;-68
2024/04/19 16:21:41;;;;;;;;;;;;;;;;;;5408488;26;19993;-67
2024/04/19 16:24:06;;;;;;;;;;;;;;;;;;5343424;26;19961;-65
2024/04/19 16:26:33;;;;;;;;;;;;;;;;;;5409150;26;20297;-66
2024/04/19 16:29:01;;;;;;;;;;;;;;;;;;5379027;26;19936;-65
2024/04/19 16:31:28;;;;;;;;;;;;;;;;;;5375333;26;20404;-66
2024/04/19 16:33:56;;;;;;;;;;;;;;;;;;5409122;26;19928;-66
2024/04/19 16:36:21;;;;;;;;;;;;;;;;;;5407257;26;19948;-66
2024/04/19 16:38:46;;;;;;;;;;;;;;;;;;5373125;26;19964;-66
2024/04/19 16:41:12;;;;;;;;;;;;;;;;;;5405266;26;20316;-65
2024/04/19 16:43:37;;;;;;;;;;;;;;;;;;5408780;26;19998;-65
2024/04/19 16:46:02;;;;;;;;;;;;;;;;;;5370407;26;20550;-67
2024/04/19 16:48:30;;;;;;;;;;;;;;;;;;5372513;26;20659;-67
2024/04/19 16:50:56;;;;;;;;;;;;;;;;;;5406195;26;19933;-69